createdAt,value
2018-12-01T00:00:24.607Z,27.10
2018-12-01T00:01:05.207Z,27.10
2018-12-01T00:01:44.058Z,27.20
2018-12-01T00:02:22.066Z,27.20
2018-12-01T00:03:00.856Z,27.20
2018-12-01T00:03:39.309Z,27.20
2018-12-01T00:04:18.576Z,27.20
2018-12-01T00:04:57.882Z,27.30
2018-12-01T00:05:36.436Z,27.20
2018-12-01T00:06:14.558Z,27.20
2018-12-01T00:06:53.990Z,27.30
2018-12-01T00:07:33.232Z,27.20
2018-12-01T00:08:11.421Z,27.30
2018-12-01T00:08:50.040Z,27.30
2018-12-01T00:09:28.343Z,27.30
2018-12-01T00:10:08.304Z,27.30
2018-12-01T00:10:46.894Z,27.30
2018-12-01T00:11:25.849Z,27.30
2018-12-01T00:12:05.771Z,27.30
2018-12-01T00:12:44.301Z,27.30
2018-12-01T00:13:22.668Z,27.30
2018-12-01T00:14:01.408Z,27.30
2018-12-01T00:14:39.548Z,27.30
2018-12-01T00:15:19.670Z,27.30
2018-12-01T00:15:58.070Z,27.30
2018-12-01T00:16:36.349Z,27.40
2018-12-01T00:17:14.791Z,27.40
2018-12-01T00:17:57.288Z,27.40
2018-12-01T00:18:35.767Z,27.40
2018-12-01T00:19:16.162Z,27.40
2018-12-01T00:19:55.696Z,27.40
2018-12-01T00:20:38.160Z,27.40
2018-12-01T00:21:17.170Z,27.40
2018-12-01T00:21:55.459Z,27.50
2018-12-01T00:22:34.715Z,27.40
2018-12-01T00:23:13.451Z,27.40
2018-12-01T00:23:51.835Z,27.40
2018-12-01T00:24:29.838Z,27.40
2018-12-01T00:25:08.812Z,27.40
2018-12-01T00:25:47.459Z,27.40
2018-12-01T00:26:26.181Z,27.40
2018-12-01T00:27:05.143Z,27.40
2018-12-01T00:27:44.828Z,27.40
2018-12-01T00:28:23.244Z,27.40
2018-12-01T00:29:01.609Z,27.40
2018-12-01T00:29:39.923Z,27.40
2018-12-01T00:30:20.113Z,27.50
2018-12-01T00:31:00.224Z,27.50
2018-12-01T00:31:38.458Z,27.50
2018-12-01T00:32:17.595Z,27.50
2018-12-01T00:32:56.665Z,27.50
2018-12-01T00:33:34.989Z,27.50
2018-12-01T00:34:13.580Z,27.50
2018-12-01T00:34:53.473Z,27.50
2018-12-01T00:35:33.272Z,27.60
2018-12-01T00:36:11.511Z,27.50
2018-12-01T00:36:49.808Z,27.50
2018-12-01T00:37:28.126Z,27.50
2018-12-01T00:38:06.443Z,27.50
2018-12-01T00:38:44.772Z,27.50
2018-12-01T00:39:23.508Z,27.50
2018-12-01T00:40:02.279Z,27.50
2018-12-01T00:41:44.314Z,27.50
2018-12-01T00:42:22.650Z,27.50
2018-12-01T00:43:01.198Z,27.50
2018-12-01T00:43:39.859Z,27.50
2018-12-01T00:44:18.284Z,27.50
2018-12-01T00:44:56.475Z,27.50
2018-12-01T00:45:34.951Z,27.50
2018-12-01T00:49:15.453Z,27.50
2018-12-01T00:49:54.072Z,27.60
2018-12-01T00:50:33.150Z,27.60
2018-12-01T00:51:11.916Z,27.60
2018-12-01T00:51:49.985Z,27.70
2018-12-01T00:52:28.958Z,27.60
2018-12-01T00:53:08.803Z,27.70
2018-12-01T00:53:47.423Z,27.70
2018-12-01T00:54:25.953Z,27.70
2018-12-01T00:55:04.821Z,27.70
2018-12-01T00:55:44.315Z,27.60
2018-12-01T00:56:22.968Z,27.70
2018-12-01T00:57:02.647Z,27.70
2018-12-01T00:57:41.165Z,27.70
2018-12-01T00:58:19.375Z,27.70
2018-12-01T00:59:01.239Z,27.70
2018-12-01T00:59:39.496Z,27.70
2018-12-01T01:00:26.923Z,27.70
2018-12-01T01:01:05.125Z,27.60
2018-12-01T01:01:44.861Z,27.70
2018-12-01T01:02:27.318Z,27.60
2018-12-01T01:03:05.576Z,27.70
2018-12-01T01:03:43.793Z,27.70
2018-12-01T01:04:23.101Z,27.70
2018-12-01T01:05:01.574Z,27.70
2018-12-01T01:05:41.234Z,27.60
2018-12-01T01:06:19.291Z,27.60
2018-12-01T01:07:00.619Z,27.60
2018-12-01T01:07:40.206Z,27.70
2018-12-01T01:08:19.686Z,27.70
2018-12-01T01:08:58.047Z,27.70
2018-12-01T01:09:39.370Z,27.70
2018-12-01T01:10:17.573Z,27.70
2018-12-01T01:10:55.455Z,27.60
2018-12-01T01:11:33.490Z,27.70
2018-12-01T01:12:12.115Z,27.60
2018-12-01T01:12:50.583Z,27.60
2018-12-01T01:13:29.074Z,27.60
2018-12-01T01:14:07.401Z,27.60
2018-12-01T01:14:45.788Z,27.70
2018-12-01T01:15:24.628Z,27.70
2018-12-01T01:16:03.201Z,27.60
2018-12-01T01:16:42.295Z,27.70
2018-12-01T01:17:21.937Z,27.70
2018-12-01T01:18:02.232Z,27.70
2018-12-01T01:18:41.571Z,27.70
2018-12-01T01:19:21.365Z,27.70
2018-12-01T01:19:59.811Z,27.70
2018-12-01T01:20:38.302Z,27.70
2018-12-01T01:21:17.366Z,27.70
2018-12-01T01:21:55.715Z,27.70
2018-12-01T01:22:35.552Z,27.70
2018-12-01T01:23:13.952Z,27.70
2018-12-01T01:23:52.190Z,27.70
2018-12-01T01:24:30.758Z,27.70
2018-12-01T01:25:09.503Z,27.70
2018-12-01T01:25:48.633Z,27.70
2018-12-01T01:26:27.743Z,27.80
2018-12-01T01:27:06.589Z,27.80
2018-12-01T01:27:45.908Z,27.80
2018-12-01T01:28:24.341Z,27.80
2018-12-01T01:29:02.741Z,27.80
2018-12-01T01:29:41.252Z,27.80
2018-12-01T01:30:24.072Z,27.80
2018-12-01T01:31:03.008Z,27.80
2018-12-01T01:31:41.994Z,27.80
2018-12-01T01:32:21.600Z,27.80
2018-12-01T01:33:09.148Z,27.80
2018-12-01T01:33:48.523Z,27.80
2018-12-01T01:34:28.837Z,27.80
2018-12-01T01:35:07.447Z,27.80
2018-12-01T01:35:46.119Z,27.80
2018-12-01T01:36:24.040Z,27.80
2018-12-01T01:37:02.983Z,27.80
2018-12-01T01:37:41.561Z,27.80
2018-12-01T01:38:20.345Z,27.80
2018-12-01T01:38:58.757Z,27.90
2018-12-01T01:39:37.589Z,27.90
2018-12-01T01:40:18.847Z,27.90
2018-12-01T01:41:01.072Z,27.90
2018-12-01T01:41:39.518Z,27.90
2018-12-01T01:42:18.398Z,27.90
2018-12-01T01:42:56.889Z,27.90
2018-12-01T01:43:35.447Z,27.90
2018-12-01T01:44:14.624Z,27.90
2018-12-01T01:44:53.136Z,27.90
2018-12-01T01:45:33.035Z,27.90
2018-12-01T01:46:12.790Z,27.90
2018-12-01T01:46:52.082Z,27.90
2018-12-01T01:47:31.609Z,27.90
2018-12-01T01:48:11.058Z,27.90
2018-12-01T01:48:50.076Z,27.90
2018-12-01T01:49:30.944Z,28.00
2018-12-01T01:50:10.881Z,28.00
2018-12-01T01:50:49.570Z,28.00
2018-12-01T01:51:27.841Z,28.00
2018-12-01T01:52:06.859Z,28.00
2018-12-01T01:52:45.437Z,28.00
2018-12-01T01:53:24.175Z,28.00
2018-12-01T01:54:02.637Z,28.00
2018-12-01T01:54:41.383Z,28.00
2018-12-01T01:55:19.841Z,28.00
2018-12-01T01:55:59.234Z,28.00
2018-12-01T01:56:37.151Z,28.00
2018-12-01T01:57:18.585Z,28.00
2018-12-01T01:57:57.055Z,28.00
2018-12-01T01:58:35.859Z,28.00
2018-12-01T01:59:17.327Z,28.00
2018-12-01T01:59:55.603Z,28.00
2018-12-01T02:00:33.934Z,28.00
2018-12-01T02:01:13.274Z,28.10
2018-12-01T02:01:52.722Z,28.10
2018-12-01T02:02:31.880Z,28.20
2018-12-01T02:03:10.536Z,28.20
2018-12-01T02:03:48.965Z,28.20
2018-12-01T02:04:28.779Z,28.20
2018-12-01T02:05:07.361Z,28.20
2018-12-01T02:05:45.726Z,28.20
2018-12-01T02:06:25.268Z,28.20
2018-12-01T02:07:03.606Z,28.10
2018-12-01T02:07:42.291Z,28.10
2018-12-01T02:08:20.976Z,28.10
2018-12-01T02:08:59.672Z,28.10
2018-12-01T02:09:37.791Z,28.10
2018-12-01T02:10:17.331Z,28.10
2018-12-01T02:10:56.705Z,28.10
2018-12-01T02:11:36.276Z,28.10
2018-12-01T02:12:15.687Z,28.10
2018-12-01T02:12:54.450Z,28.10
2018-12-01T02:13:33.026Z,28.10
2018-12-01T02:14:11.481Z,28.10
2018-12-01T02:14:50.102Z,28.10
2018-12-01T02:15:29.609Z,28.10
2018-12-01T02:16:08.258Z,28.10
2018-12-01T02:16:46.579Z,28.10
2018-12-01T02:17:26.846Z,28.10
2018-12-01T02:18:06.240Z,28.10
2018-12-01T02:18:44.766Z,28.10
2018-12-01T02:19:23.192Z,28.10
2018-12-01T02:20:01.742Z,28.20
2018-12-01T02:20:40.289Z,28.10
2018-12-01T02:21:26.002Z,28.20
2018-12-01T02:22:04.606Z,28.20
2018-12-01T02:22:42.872Z,28.20
2018-12-01T02:23:22.313Z,28.20
2018-12-01T02:24:00.607Z,28.20
2018-12-01T02:24:40.616Z,28.20
2018-12-01T02:25:20.879Z,28.20
2018-12-01T02:25:59.741Z,28.20
2018-12-01T02:26:38.188Z,28.20
2018-12-01T02:27:16.298Z,28.20
2018-12-01T02:27:55.055Z,28.20
2018-12-01T02:28:34.401Z,28.20
2018-12-01T02:29:12.599Z,28.20
2018-12-01T02:29:51.712Z,28.20
2018-12-01T02:30:30.647Z,28.20
2018-12-01T02:31:13.366Z,28.20
2018-12-01T02:31:51.569Z,28.20
2018-12-01T02:32:29.993Z,28.20
2018-12-01T02:33:09.682Z,28.20
2018-12-01T02:33:48.018Z,28.20
2018-12-01T02:34:26.450Z,28.20
2018-12-01T02:35:04.766Z,28.30
2018-12-01T02:35:43.403Z,28.30
2018-12-01T02:36:21.941Z,28.30
2018-12-01T02:37:01.474Z,28.30
2018-12-01T02:37:41.481Z,28.30
2018-12-01T02:38:21.165Z,28.30
2018-12-01T02:38:59.732Z,28.30
2018-12-01T02:39:40.991Z,28.30
2018-12-01T02:40:20.114Z,28.40
2018-12-01T02:40:58.680Z,28.30
2018-12-01T02:41:37.409Z,28.30
2018-12-01T02:42:15.879Z,28.40
2018-12-01T02:42:54.900Z,28.40
2018-12-01T02:43:33.076Z,28.40
2018-12-01T02:44:20.248Z,28.40
2018-12-01T02:45:07.967Z,28.40
2018-12-01T02:45:55.310Z,28.40
2018-12-01T02:46:43.511Z,28.40
2018-12-01T02:47:21.949Z,28.40
2018-12-01T02:48:02.229Z,28.30
2018-12-01T02:48:40.919Z,28.40
2018-12-01T02:49:19.507Z,28.40
2018-12-01T02:49:59.561Z,28.40
2018-12-01T02:50:39.134Z,28.40
2018-12-01T02:51:18.348Z,28.40
2018-12-01T02:51:58.176Z,28.40
2018-12-01T02:52:36.677Z,28.40
2018-12-01T02:53:15.886Z,28.40
2018-12-01T02:53:55.821Z,28.40
2018-12-01T02:54:34.355Z,28.40
2018-12-01T02:55:12.935Z,28.50
2018-12-01T02:55:51.812Z,28.50
2018-12-01T02:56:30.726Z,28.50
2018-12-01T02:57:09.333Z,28.50
2018-12-01T02:57:48.607Z,28.50
2018-12-01T02:58:27.201Z,28.50
2018-12-01T02:59:05.616Z,28.50
2018-12-01T02:59:45.247Z,28.50
2018-12-01T03:00:24.998Z,28.50
2018-12-01T03:01:03.577Z,28.50
2018-12-01T03:01:42.442Z,28.50
2018-12-01T03:02:21.362Z,28.50
2018-12-01T03:02:59.751Z,28.50
2018-12-01T03:03:39.611Z,28.50
2018-12-01T03:04:18.085Z,28.50
2018-12-01T03:04:56.790Z,28.50
2018-12-01T03:05:36.083Z,28.60
2018-12-01T03:06:14.818Z,28.60
2018-12-01T03:06:53.405Z,28.60
2018-12-01T03:07:32.013Z,28.60
2018-12-01T03:08:11.201Z,28.50
2018-12-01T03:08:49.925Z,28.60
2018-12-01T03:09:28.678Z,28.50
2018-12-01T03:10:09.778Z,28.60
2018-12-01T03:10:48.365Z,28.60
2018-12-01T03:11:27.026Z,28.60
2018-12-01T03:12:06.951Z,28.60
2018-12-01T03:12:49.706Z,28.60
2018-12-01T03:13:31.969Z,28.60
2018-12-01T03:14:11.026Z,28.70
2018-12-01T03:14:50.214Z,28.70
2018-12-01T03:15:29.127Z,28.80
2018-12-01T03:16:08.181Z,28.70
2018-12-01T03:16:47.495Z,28.80
2018-12-01T03:17:26.659Z,28.70
2018-12-01T03:18:04.837Z,28.80
2018-12-01T03:18:43.526Z,28.80
2018-12-01T03:19:25.788Z,28.80
2018-12-01T03:20:03.840Z,28.80
2018-12-01T03:20:43.277Z,28.70
2018-12-01T03:21:22.818Z,28.70
2018-12-01T03:22:01.808Z,28.80
2018-12-01T03:22:41.169Z,28.80
2018-12-01T03:23:20.619Z,28.80
2018-12-01T03:24:00.950Z,28.70
2018-12-01T03:24:39.954Z,28.80
2018-12-01T03:25:23.986Z,28.70
2018-12-01T03:26:07.320Z,28.80
2018-12-01T03:26:45.781Z,28.70
2018-12-01T03:27:25.530Z,28.70
2018-12-01T03:28:07.676Z,28.80
2018-12-01T03:28:46.488Z,28.70
2018-12-01T03:29:25.179Z,28.80
2018-12-01T03:30:03.890Z,28.70
2018-12-01T03:30:43.067Z,28.70
2018-12-01T03:31:22.672Z,28.80
2018-12-01T03:32:01.443Z,28.80
2018-12-01T03:32:41.093Z,28.80
2018-12-01T03:33:19.753Z,28.80
2018-12-01T03:33:58.957Z,28.80
2018-12-01T03:34:37.320Z,28.80
2018-12-01T03:35:17.552Z,28.80
2018-12-01T03:35:56.451Z,28.80
2018-12-01T03:36:35.256Z,28.80
2018-12-01T03:37:13.948Z,28.80
2018-12-01T03:37:55.125Z,28.80
2018-12-01T03:38:33.814Z,28.80
2018-12-01T03:39:14.183Z,28.80
2018-12-01T03:39:52.341Z,28.80
2018-12-01T03:40:36.672Z,28.80
2018-12-01T03:41:16.188Z,28.80
2018-12-01T03:41:54.846Z,28.90
2018-12-01T03:42:33.419Z,28.80
2018-12-01T03:43:13.980Z,28.90
2018-12-01T03:43:52.836Z,28.90
2018-12-01T03:44:32.424Z,28.90
2018-12-01T03:45:13.327Z,28.90
2018-12-01T03:45:52.705Z,28.90
2018-12-01T03:46:31.791Z,28.90
2018-12-01T03:47:10.464Z,28.90
2018-12-01T03:47:50.140Z,28.90
2018-12-01T03:48:29.217Z,28.90
2018-12-01T03:49:07.672Z,28.90
2018-12-01T03:49:46.450Z,29.00
2018-12-01T03:50:26.213Z,28.90
2018-12-01T03:51:04.569Z,28.90
2018-12-01T03:51:43.306Z,29.00
2018-12-01T03:52:22.158Z,28.90
2018-12-01T03:53:01.638Z,28.90
2018-12-01T03:53:39.935Z,29.00
2018-12-01T03:54:18.583Z,29.00
2018-12-01T03:54:57.886Z,29.00
2018-12-01T03:55:37.108Z,29.00
2018-12-01T03:56:15.934Z,29.00
2018-12-01T03:56:54.473Z,29.00
2018-12-01T03:57:33.157Z,29.00
2018-12-01T03:58:11.415Z,29.00
2018-12-01T03:58:50.212Z,29.00
2018-12-01T03:59:28.951Z,29.00
2018-12-01T04:00:08.289Z,29.00
2018-12-01T04:00:48.417Z,29.00
2018-12-01T04:01:27.315Z,29.10
2018-12-01T04:02:06.787Z,29.00
2018-12-01T04:02:45.262Z,29.00
2018-12-01T04:03:26.167Z,29.00
2018-12-01T04:04:05.721Z,29.00
2018-12-01T04:04:45.465Z,29.00
2018-12-01T04:05:24.599Z,29.10
2018-12-01T04:06:03.121Z,29.10
2018-12-01T04:06:41.247Z,29.10
2018-12-01T04:07:19.999Z,29.10
2018-12-01T04:07:59.695Z,29.10
2018-12-01T04:08:38.275Z,29.10
2018-12-01T04:09:26.587Z,29.10
2018-12-01T04:10:05.408Z,29.10
2018-12-01T04:10:44.321Z,29.10
2018-12-01T04:11:22.652Z,29.10
2018-12-01T04:12:01.283Z,29.10
2018-12-01T04:12:39.696Z,29.10
2018-12-01T04:13:18.223Z,29.10
2018-12-01T04:13:57.455Z,29.10
2018-12-01T04:14:37.149Z,29.10
2018-12-01T04:15:15.813Z,29.20
2018-12-01T04:15:54.416Z,29.20
2018-12-01T04:16:33.429Z,29.20
2018-12-01T04:17:12.074Z,29.20
2018-12-01T04:17:51.181Z,29.20
2018-12-01T04:18:30.214Z,29.20
2018-12-01T04:19:09.182Z,29.20
2018-12-01T04:19:47.948Z,29.20
2018-12-01T04:20:26.508Z,29.20
2018-12-01T04:21:04.957Z,29.20
2018-12-01T04:21:43.639Z,29.20
2018-12-01T04:22:22.579Z,29.20
2018-12-01T04:23:02.221Z,29.20
2018-12-01T04:23:41.701Z,29.20
2018-12-01T04:24:20.278Z,29.20
2018-12-01T04:24:58.504Z,29.30
2018-12-01T04:25:37.285Z,29.30
2018-12-01T04:26:15.759Z,29.30
2018-12-01T04:26:54.279Z,29.30
2018-12-01T04:27:32.883Z,29.30
2018-12-01T04:28:12.456Z,29.30
2018-12-01T04:28:50.679Z,29.30
2018-12-01T04:29:28.942Z,29.30
2018-12-01T04:30:11.537Z,29.30
2018-12-01T04:30:51.557Z,29.30
2018-12-01T04:31:31.306Z,29.30
2018-12-01T04:32:10.926Z,29.30
2018-12-01T04:32:49.358Z,29.30
2018-12-01T04:33:30.776Z,29.30
2018-12-01T04:34:10.561Z,29.30
2018-12-01T04:34:49.314Z,29.30
2018-12-01T04:35:27.947Z,29.40
2018-12-01T04:36:06.242Z,29.40
2018-12-01T04:36:44.672Z,29.40
2018-12-01T04:37:22.837Z,29.40
2018-12-01T04:38:01.279Z,29.40
2018-12-01T04:38:39.947Z,29.40
2018-12-01T04:39:19.670Z,29.40
2018-12-01T04:39:57.927Z,29.40
2018-12-01T04:40:36.123Z,29.40
2018-12-01T04:41:18.615Z,29.40
2018-12-01T04:41:58.160Z,29.40
2018-12-01T04:42:36.957Z,29.40
2018-12-01T04:43:15.704Z,29.40
2018-12-01T04:43:56.204Z,29.40
2018-12-01T04:44:35.703Z,29.40
2018-12-01T04:45:14.365Z,29.40
2018-12-01T04:45:54.240Z,29.40
2018-12-01T04:46:34.035Z,29.40
2018-12-01T04:47:13.062Z,29.40
2018-12-01T04:47:52.038Z,29.40
2018-12-01T04:48:30.739Z,29.50
2018-12-01T04:49:10.160Z,29.50
2018-12-01T04:49:49.961Z,29.50
2018-12-01T04:50:29.779Z,29.50
2018-12-01T04:51:08.388Z,29.50
2018-12-01T04:51:47.171Z,29.50
2018-12-01T04:52:26.382Z,29.50
2018-12-01T04:53:05.614Z,29.50
2018-12-01T04:53:44.371Z,29.50
2018-12-01T04:54:23.393Z,29.50
2018-12-01T04:55:02.340Z,29.50
2018-12-01T04:55:41.452Z,29.50
2018-12-01T04:56:21.980Z,29.50
2018-12-01T04:57:01.550Z,29.50
2018-12-01T04:57:40.386Z,29.50
2018-12-01T04:58:19.356Z,29.50
2018-12-01T04:58:58.964Z,29.50
2018-12-01T04:59:37.962Z,29.60
2018-12-01T05:00:20.413Z,29.60
2018-12-01T05:00:58.808Z,29.60
2018-12-01T05:01:37.482Z,29.60
2018-12-01T05:02:16.138Z,29.60
2018-12-01T05:02:55.483Z,29.60
2018-12-01T05:03:34.926Z,29.60
2018-12-01T05:04:13.422Z,29.60
2018-12-01T05:04:52.227Z,29.60
2018-12-01T05:05:30.454Z,29.60
2018-12-01T05:06:08.913Z,29.60
2018-12-01T05:06:48.116Z,29.60
2018-12-01T05:07:26.493Z,29.70
2018-12-01T05:08:05.161Z,29.60
2018-12-01T05:08:47.063Z,29.60
2018-12-01T05:09:25.568Z,29.60
2018-12-01T05:10:05.485Z,29.60
2018-12-01T05:10:43.888Z,29.70
2018-12-01T05:11:23.133Z,29.70
2018-12-01T05:12:01.699Z,29.70
2018-12-01T05:12:40.466Z,29.70
2018-12-01T05:13:18.851Z,29.70
2018-12-01T05:13:56.933Z,29.70
2018-12-01T05:14:36.300Z,29.70
2018-12-01T05:15:17.121Z,29.70
2018-12-01T05:15:55.815Z,29.70
2018-12-01T05:16:35.275Z,29.70
2018-12-01T05:17:14.391Z,29.70
2018-12-01T05:17:53.404Z,29.70
2018-12-01T05:18:32.158Z,29.70
2018-12-01T05:19:11.315Z,29.70
2018-12-01T05:19:50.059Z,29.70
2018-12-01T05:20:28.781Z,29.80
2018-12-01T05:21:07.290Z,29.80
2018-12-01T05:22:50.693Z,29.80
2018-12-01T05:24:32.760Z,29.80
2018-12-01T05:25:12.703Z,29.80
2018-12-01T05:25:51.482Z,29.80
2018-12-01T05:26:30.112Z,29.80
2018-12-01T05:27:09.385Z,29.80
2018-12-01T05:27:47.939Z,29.80
2018-12-01T05:28:26.720Z,29.90
2018-12-01T05:29:05.290Z,29.90
2018-12-01T05:29:43.491Z,29.90
2018-12-01T05:30:22.218Z,29.90
2018-12-01T05:31:01.296Z,29.90
2018-12-01T05:31:39.740Z,29.90
2018-12-01T05:32:17.846Z,29.90
2018-12-01T05:32:56.827Z,29.90
2018-12-01T05:33:35.310Z,29.90
2018-12-01T05:34:13.819Z,29.90
2018-12-01T05:34:52.235Z,30.00
2018-12-01T05:35:31.289Z,29.90
2018-12-01T05:36:09.811Z,29.90
2018-12-01T05:36:49.679Z,29.90
2018-12-01T05:37:29.175Z,29.90
2018-12-01T05:38:08.767Z,30.00
2018-12-01T05:38:47.823Z,30.00
2018-12-01T05:39:27.375Z,30.00
2018-12-01T05:40:08.274Z,30.00
2018-12-01T05:40:47.130Z,30.00
2018-12-01T05:41:26.060Z,30.00
2018-12-01T05:42:04.446Z,30.00
2018-12-01T05:42:43.054Z,30.00
2018-12-01T05:43:22.916Z,30.00
2018-12-01T05:44:02.118Z,30.00
2018-12-01T05:44:40.685Z,30.00
2018-12-01T05:45:24.989Z,30.00
2018-12-01T05:46:03.565Z,30.10
2018-12-01T05:46:42.156Z,30.00
2018-12-01T05:47:20.689Z,30.00
2018-12-01T05:47:59.467Z,30.00
2018-12-01T05:48:37.901Z,30.00
2018-12-01T05:49:16.897Z,30.10
2018-12-01T05:49:55.579Z,30.10
2018-12-01T05:50:34.163Z,30.10
2018-12-01T05:51:14.499Z,30.10
2018-12-01T05:51:53.942Z,30.10
2018-12-01T05:52:33.324Z,30.10
2018-12-01T05:53:12.303Z,30.10
2018-12-01T05:53:52.247Z,30.10
2018-12-01T05:54:32.221Z,30.10
2018-12-01T05:55:15.030Z,30.10
2018-12-01T05:55:53.891Z,30.10
2018-12-01T05:56:32.374Z,30.10
2018-12-01T05:57:12.094Z,30.10
2018-12-01T05:57:50.781Z,30.10
2018-12-01T05:58:30.008Z,30.10
2018-12-01T05:59:08.852Z,30.20
2018-12-01T05:59:49.084Z,30.20
2018-12-01T06:00:27.834Z,30.10
2018-12-01T06:01:06.590Z,30.20
2018-12-01T06:01:45.259Z,30.10
2018-12-01T06:02:24.047Z,30.10
2018-12-01T06:03:04.100Z,30.20
2018-12-01T06:03:43.501Z,30.20
2018-12-01T06:04:22.430Z,30.20
2018-12-01T06:05:01.491Z,30.20
2018-12-01T06:05:40.840Z,30.20
2018-12-01T06:06:33.335Z,30.20
2018-12-01T06:07:13.063Z,30.20
2018-12-01T06:07:52.386Z,30.20
2018-12-01T06:08:30.865Z,30.20
2018-12-01T06:09:11.833Z,30.20
2018-12-01T06:09:50.156Z,30.30
2018-12-01T06:10:29.216Z,30.30
2018-12-01T06:11:09.915Z,30.30
2018-12-01T06:11:48.816Z,30.30
2018-12-01T06:12:27.494Z,30.30
2018-12-01T06:13:06.247Z,30.30
2018-12-01T06:13:46.361Z,30.30
2018-12-01T06:14:26.457Z,30.30
2018-12-01T06:15:05.291Z,30.30
2018-12-01T06:15:43.629Z,30.30
2018-12-01T06:16:23.354Z,30.30
2018-12-01T06:17:01.889Z,30.30
2018-12-01T06:17:40.576Z,30.30
2018-12-01T06:18:19.596Z,30.30
2018-12-01T06:18:59.534Z,30.30
2018-12-01T06:19:38.071Z,30.30
2018-12-01T06:20:19.341Z,30.30
2018-12-01T06:20:59.295Z,30.30
2018-12-01T06:21:38.029Z,30.30
2018-12-01T06:22:16.452Z,30.30
2018-12-01T06:22:55.927Z,30.30
2018-12-01T06:23:34.726Z,30.30
2018-12-01T06:24:13.629Z,30.30
2018-12-01T06:24:52.970Z,30.30
2018-12-01T06:25:33.216Z,30.30
2018-12-01T06:26:11.444Z,30.40
2018-12-01T06:26:49.611Z,30.40
2018-12-01T06:27:28.902Z,30.40
2018-12-01T06:28:08.100Z,30.40
2018-12-01T06:28:46.444Z,30.40
2018-12-01T06:29:26.381Z,30.40
2018-12-01T06:30:06.860Z,30.40
2018-12-01T06:30:45.130Z,30.40
2018-12-01T06:31:23.541Z,30.40
2018-12-01T06:32:02.213Z,30.40
2018-12-01T06:32:40.698Z,30.40
2018-12-01T06:33:19.062Z,30.40
2018-12-01T06:33:58.992Z,30.40
2018-12-01T06:34:38.954Z,30.40
2018-12-01T06:35:17.004Z,30.40
2018-12-01T06:35:55.517Z,30.40
2018-12-01T06:36:34.082Z,30.40
2018-12-01T06:37:12.897Z,30.40
2018-12-01T06:37:51.715Z,30.50
2018-12-01T06:38:31.255Z,30.50
2018-12-01T06:39:11.616Z,30.50
2018-12-01T06:39:50.463Z,30.50
2018-12-01T06:40:29.173Z,30.40
2018-12-01T06:41:07.909Z,30.50
2018-12-01T06:41:46.442Z,30.50
2018-12-01T06:42:24.766Z,30.50
2018-12-01T06:43:03.320Z,30.50
2018-12-01T06:43:42.014Z,30.50
2018-12-01T06:44:21.476Z,30.50
2018-12-01T06:45:00.213Z,30.50
2018-12-01T06:45:38.733Z,30.50
2018-12-01T06:46:17.560Z,30.50
2018-12-01T06:46:56.219Z,30.50
2018-12-01T06:47:34.951Z,30.50
2018-12-01T06:48:13.354Z,30.50
2018-12-01T06:48:51.522Z,30.50
2018-12-01T06:49:30.168Z,30.50
2018-12-01T06:50:10.506Z,30.50
2018-12-01T06:50:50.181Z,30.50
2018-12-01T06:51:29.699Z,30.50
2018-12-01T06:52:07.897Z,30.50
2018-12-01T06:52:46.590Z,30.50
2018-12-01T06:53:27.890Z,30.50
2018-12-01T06:54:06.354Z,30.50
2018-12-01T06:54:45.949Z,30.50
2018-12-01T06:55:25.156Z,30.60
2018-12-01T06:56:05.895Z,30.50
2018-12-01T06:56:45.337Z,30.60
2018-12-01T06:57:23.807Z,30.60
2018-12-01T06:58:02.341Z,30.50
2018-12-01T06:58:41.406Z,30.60
2018-12-01T06:59:20.881Z,30.60
2018-12-01T07:00:01.161Z,30.60
2018-12-01T07:00:39.542Z,30.60
2018-12-01T07:01:19.084Z,30.60
2018-12-01T07:01:58.634Z,30.60
2018-12-01T07:02:37.161Z,30.60
2018-12-01T07:03:15.286Z,30.60
2018-12-01T07:03:54.179Z,30.60
2018-12-01T07:04:33.052Z,30.60
2018-12-01T07:05:12.464Z,30.60
2018-12-01T07:05:50.984Z,30.60
2018-12-01T07:06:29.454Z,30.60
2018-12-01T07:07:07.862Z,30.60
2018-12-01T07:07:45.898Z,30.60
2018-12-01T07:08:23.981Z,30.60
2018-12-01T07:09:03.592Z,30.60
2018-12-01T07:09:41.924Z,30.60
2018-12-01T07:10:22.507Z,30.60
2018-12-01T07:11:01.242Z,30.60
2018-12-01T07:11:40.811Z,30.60
2018-12-01T07:12:19.562Z,30.60
2018-12-01T07:13:03.703Z,30.60
2018-12-01T07:13:42.384Z,30.60
2018-12-01T07:14:20.839Z,30.60
2018-12-01T07:15:01.824Z,30.60
2018-12-01T07:15:42.751Z,30.60
2018-12-01T07:16:21.033Z,30.60
2018-12-01T07:17:02.517Z,30.60
2018-12-01T07:17:41.827Z,30.60
2018-12-01T07:18:29.278Z,30.60
2018-12-01T07:19:16.692Z,30.60
2018-12-01T07:19:54.983Z,30.60
2018-12-01T07:20:33.718Z,30.60
2018-12-01T07:21:12.120Z,30.70
2018-12-01T07:21:52.237Z,30.70
2018-12-01T07:22:30.751Z,30.60
2018-12-01T07:23:09.002Z,30.70
2018-12-01T07:23:47.611Z,30.70
2018-12-01T07:24:27.336Z,30.70
2018-12-01T07:25:05.492Z,30.70
2018-12-01T07:25:44.185Z,30.70
2018-12-01T07:26:23.888Z,30.70
2018-12-01T07:27:02.261Z,30.70
2018-12-01T07:27:42.932Z,30.70
2018-12-01T07:28:21.532Z,30.70
2018-12-01T07:29:00.577Z,30.70
2018-12-01T07:29:41.355Z,30.70
2018-12-01T07:30:26.265Z,30.70
2018-12-01T07:31:04.959Z,30.70
2018-12-01T07:31:43.331Z,30.70
2018-12-01T07:32:21.880Z,30.70
2018-12-01T07:32:59.857Z,30.70
2018-12-01T07:33:39.631Z,30.70
2018-12-01T07:34:19.892Z,30.70
2018-12-01T07:34:58.517Z,30.70
2018-12-01T07:35:38.517Z,30.70
2018-12-01T07:36:16.592Z,30.70
2018-12-01T07:36:54.717Z,30.70
2018-12-01T07:37:33.550Z,30.70
2018-12-01T07:38:12.926Z,30.70
2018-12-01T07:38:52.165Z,30.70
2018-12-01T07:39:30.713Z,30.70
2018-12-01T07:40:12.559Z,30.70
2018-12-01T07:40:52.851Z,30.70
2018-12-01T07:41:32.672Z,30.70
2018-12-01T07:42:11.732Z,30.70
2018-12-01T07:42:50.722Z,30.80
2018-12-01T07:43:29.187Z,30.80
2018-12-01T07:44:07.988Z,30.80
2018-12-01T07:44:47.010Z,30.70
2018-12-01T07:45:26.137Z,30.80
2018-12-01T07:46:04.756Z,30.80
2018-12-01T07:46:43.352Z,30.80
2018-12-01T07:47:23.017Z,30.80
2018-12-01T07:48:01.551Z,30.80
2018-12-01T07:48:40.158Z,30.80
2018-12-01T07:49:18.670Z,30.80
2018-12-01T07:49:56.889Z,30.80
2018-12-01T07:50:36.463Z,30.80
2018-12-01T07:51:14.707Z,30.80
2018-12-01T07:51:53.119Z,30.80
2018-12-01T07:52:31.434Z,30.80
2018-12-01T07:53:09.747Z,30.80
2018-12-01T07:53:49.266Z,30.80
2018-12-01T07:54:27.822Z,30.80
2018-12-01T07:55:06.381Z,30.80
2018-12-01T07:55:45.939Z,30.80
2018-12-01T07:56:24.299Z,30.80
2018-12-01T07:57:03.186Z,30.80
2018-12-01T07:57:43.409Z,30.80
2018-12-01T07:58:22.974Z,30.80
2018-12-01T07:59:02.436Z,30.80
2018-12-01T07:59:40.732Z,30.90
2018-12-01T08:00:20.416Z,30.80
2018-12-01T08:00:58.553Z,30.80
2018-12-01T08:01:38.403Z,30.90
2018-12-01T08:02:16.874Z,30.90
2018-12-01T08:02:56.363Z,30.80
2018-12-01T08:03:34.789Z,30.80
2018-12-01T08:04:13.474Z,30.90
2018-12-01T08:04:52.523Z,30.90
2018-12-01T08:05:32.466Z,30.90
2018-12-01T08:06:11.994Z,30.90
2018-12-01T08:06:51.495Z,30.90
2018-12-01T08:07:29.569Z,30.90
2018-12-01T08:08:08.713Z,30.90
2018-12-01T08:08:47.871Z,30.90
2018-12-01T08:09:27.149Z,30.90
2018-12-01T08:10:06.714Z,30.90
2018-12-01T08:10:44.748Z,30.90
2018-12-01T08:11:22.789Z,30.90
2018-12-01T08:12:01.680Z,30.90
2018-12-01T08:12:39.873Z,30.90
2018-12-01T08:13:18.924Z,30.90
2018-12-01T08:13:58.185Z,30.90
2018-12-01T08:14:36.195Z,30.90
2018-12-01T08:15:18.959Z,30.90
2018-12-01T08:15:57.002Z,30.90
2018-12-01T08:16:35.125Z,30.90
2018-12-01T08:17:13.107Z,30.90
2018-12-01T08:17:53.001Z,30.90
2018-12-01T08:18:31.130Z,30.90
2018-12-01T08:19:10.762Z,30.90
2018-12-01T08:19:55.120Z,30.90
2018-12-01T08:20:33.447Z,30.90
2018-12-01T08:21:11.731Z,30.90
2018-12-01T08:21:50.300Z,30.90
2018-12-01T08:22:28.735Z,30.90
2018-12-01T08:23:07.146Z,30.90
2018-12-01T08:23:47.080Z,30.90
2018-12-01T08:24:25.919Z,30.90
2018-12-01T08:25:04.517Z,30.90
2018-12-01T08:25:44.087Z,30.90
2018-12-01T08:26:22.656Z,30.90
2018-12-01T08:27:00.786Z,30.90
2018-12-01T08:27:39.559Z,30.90
2018-12-01T08:28:19.592Z,30.90
2018-12-01T08:28:58.983Z,30.90
2018-12-01T08:29:37.316Z,30.90
2018-12-01T08:30:19.055Z,30.90
2018-12-01T08:30:57.833Z,30.90
2018-12-01T08:31:36.616Z,30.90